sensor_id;sensor_type;location;lat;lon;timestamp;P1;durP1;ratioP1;P2;durP2;ratioP2
45388;SDS011;31127;52.078;4.370;2022-12-18T00:00:03;113.90;;;36.33;;
45388;SDS011;31127;52.078;4.370;2022-12-18T00:05:09;107.07;;;36.75;;
45388;SDS011;31127;52.078;4.370;2022-12-18T00:10:04;123.72;;;38.90;;
45388;SDS011;31127;52.078;4.370;2022-12-18T00:15:00;154.35;;;44.63;;
45388;SDS011;31127;52.078;4.370;2022-12-18T00:19:55;121.17;;;39.40;;
45388;SDS011;31127;52.078;4.370;2022-12-18T00:24:50;128.90;;;39.97;;
45388;SDS011;31127;52.078;4.370;2022-12-18T00:29:46;125.72;;;40.70;;
45388;SDS011;31127;52.078;4.370;2022-12-18T00:34:42;121.82;;;38.63;;
45388;SDS011;31127;52.078;4.370;2022-12-18T00:39:38;128.00;;;41.17;;
45388;SDS011;31127;52.078;4.370;2022-12-18T00:44:33;121.63;;;39.95;;
45388;SDS011;31127;52.078;4.370;2022-12-18T00:49:28;145.00;;;42.53;;
45388;SDS011;31127;52.078;4.370;2022-12-18T00:54:24;125.43;;;37.97;;
45388;SDS011;31127;52.078;4.370;2022-12-18T00:59:19;124.95;;;40.78;;
45388;SDS011;31127;52.078;4.370;2022-12-18T01:04:15;115.20;;;41.87;;
45388;SDS011;31127;52.078;4.370;2022-12-18T01:09:14;111.28;;;38.85;;
45388;SDS011;31127;52.078;4.370;2022-12-18T01:14:09;99.38;;;36.80;;
45388;SDS011;31127;52.078;4.370;2022-12-18T01:19:07;105.70;;;35.30;;
45388;SDS011;31127;52.078;4.370;2022-12-18T01:24:03;116.55;;;35.22;;
45388;SDS011;31127;52.078;4.370;2022-12-18T01:28:58;108.22;;;35.88;;
45388;SDS011;31127;52.078;4.370;2022-12-18T01:33:54;107.57;;;37.65;;
45388;SDS011;31127;52.078;4.370;2022-12-18T01:38:50;102.32;;;35.47;;
45388;SDS011;31127;52.078;4.370;2022-12-18T01:43:50;116.63;;;37.33;;
45388;SDS011;31127;52.078;4.370;2022-12-18T01:48:48;114.72;;;37.67;;
45388;SDS011;31127;52.078;4.370;2022-12-18T01:53:44;126.97;;;39.17;;
45388;SDS011;31127;52.078;4.370;2022-12-18T01:58:44;94.13;;;35.08;;
45388;SDS011;31127;52.078;4.370;2022-12-18T02:03:41;114.78;;;36.38;;
45388;SDS011;31127;52.078;4.370;2022-12-18T02:18:57;133.80;;;38.92;;
45388;SDS011;31127;52.078;4.370;2022-12-18T02:34:59;120.53;;;36.42;;
45388;SDS011;31127;52.078;4.370;2022-12-18T02:39:57;107.07;;;35.08;;
45388;SDS011;31127;52.078;4.370;2022-12-18T02:44:53;109.15;;;35.28;;
45388;SDS011;31127;52.078;4.370;2022-12-18T02:50:13;119.22;;;37.10;;
45388;SDS011;31127;52.078;4.370;2022-12-18T03:00:14;112.43;;;36.35;;
45388;SDS011;31127;52.078;4.370;2022-12-18T03:05:16;118.55;;;37.33;;
45388;SDS011;31127;52.078;4.370;2022-12-18T03:10:15;107.40;;;36.35;;
45388;SDS011;31127;52.078;4.370;2022-12-18T03:15:14;110.72;;;38.53;;
45388;SDS011;31127;52.078;4.370;2022-12-18T03:20:13;103.38;;;35.55;;
45388;SDS011;31127;52.078;4.370;2022-12-18T03:25:10;139.70;;;37.50;;
45388;SDS011;31127;52.078;4.370;2022-12-18T03:30:26;108.07;;;33.22;;
45388;SDS011;31127;52.078;4.370;2022-12-18T03:35:27;88.63;;;30.52;;
45388;SDS011;31127;52.078;4.370;2022-12-18T03:40:51;106.78;;;32.15;;
45388;SDS011;31127;52.078;4.370;2022-12-18T03:45:53;91.95;;;31.23;;
45388;SDS011;31127;52.078;4.370;2022-12-18T03:50:52;89.03;;;30.35;;
45388;SDS011;31127;52.078;4.370;2022-12-18T03:55:50;98.20;;;32.55;;
45388;SDS011;31127;52.078;4.370;2022-12-18T04:00:46;84.65;;;31.10;;
45388;SDS011;31127;52.078;4.370;2022-12-18T04:05:43;99.25;;;32.35;;
45388;SDS011;31127;52.078;4.370;2022-12-18T04:10:39;96.53;;;32.78;;
45388;SDS011;31127;52.078;4.370;2022-12-18T04:15:35;99.28;;;34.15;;
45388;SDS011;31127;52.078;4.370;2022-12-18T04:20:33;93.57;;;30.23;;
45388;SDS011;31127;52.078;4.370;2022-12-18T04:25:28;84.43;;;29.40;;
45388;SDS011;31127;52.078;4.370;2022-12-18T04:30:40;101.95;;;33.03;;
45388;SDS011;31127;52.078;4.370;2022-12-18T04:35:35;100.35;;;31.73;;
45388;SDS011;31127;52.078;4.370;2022-12-18T04:40:31;126.40;;;35.10;;
45388;SDS011;31127;52.078;4.370;2022-12-18T04:45:26;94.38;;;31.23;;
45388;SDS011;31127;52.078;4.370;2022-12-18T04:50:21;84.13;;;30.73;;
45388;SDS011;31127;52.078;4.370;2022-12-18T04:55:17;93.03;;;28.87;;
45388;SDS011;31127;52.078;4.370;2022-12-18T05:00:12;96.30;;;30.73;;
45388;SDS011;31127;52.078;4.370;2022-12-18T05:05:08;92.22;;;31.92;;
45388;SDS011;31127;52.078;4.370;2022-12-18T05:10:03;93.07;;;32.03;;
45388;SDS011;31127;52.078;4.370;2022-12-18T05:14:59;90.63;;;31.27;;
45388;SDS011;31127;52.078;4.370;2022-12-18T05:19:54;88.87;;;30.17;;
45388;SDS011;31127;52.078;4.370;2022-12-18T05:24:49;96.13;;;30.65;;
45388;SDS011;31127;52.078;4.370;2022-12-18T05:29:45;79.10;;;27.98;;
45388;SDS011;31127;52.078;4.370;2022-12-18T05:34:40;81.38;;;28.67;;
45388;SDS011;31127;52.078;4.370;2022-12-18T05:39:55;93.15;;;31.77;;
45388;SDS011;31127;52.078;4.370;2022-12-18T05:44:51;83.35;;;29.73;;
45388;SDS011;31127;52.078;4.370;2022-12-18T05:49:46;85.77;;;29.77;;
45388;SDS011;31127;52.078;4.370;2022-12-18T05:54:41;83.18;;;28.45;;
45388;SDS011;31127;52.078;4.370;2022-12-18T05:59:37;88.93;;;29.83;;
45388;SDS011;31127;52.078;4.370;2022-12-18T06:04:32;94.00;;;31.90;;
45388;SDS011;31127;52.078;4.370;2022-12-18T06:09:47;81.53;;;31.45;;
45388;SDS011;31127;52.078;4.370;2022-12-18T06:14:43;85.60;;;31.33;;
45388;SDS011;31127;52.078;4.370;2022-12-18T06:19:38;84.53;;;30.50;;
45388;SDS011;31127;52.078;4.370;2022-12-18T06:24:34;85.95;;;30.50;;
45388;SDS011;31127;52.078;4.370;2022-12-18T06:29:29;83.63;;;30.70;;
45388;SDS011;31127;52.078;4.370;2022-12-18T06:34:24;79.25;;;29.45;;
45388;SDS011;31127;52.078;4.370;2022-12-18T06:39:19;75.57;;;29.47;;
45388;SDS011;31127;52.078;4.370;2022-12-18T06:44:15;78.30;;;29.50;;
45388;SDS011;31127;52.078;4.370;2022-12-18T06:49:10;71.97;;;29.55;;
45388;SDS011;31127;52.078;4.370;2022-12-18T06:54:06;65.47;;;27.42;;
45388;SDS011;31127;52.078;4.370;2022-12-18T06:59:01;70.35;;;26.67;;
45388;SDS011;31127;52.078;4.370;2022-12-18T07:03:57;65.28;;;26.63;;
45388;SDS011;31127;52.078;4.370;2022-12-18T07:08:53;76.00;;;27.73;;
45388;SDS011;31127;52.078;4.370;2022-12-18T07:13:48;68.75;;;24.92;;
45388;SDS011;31127;52.078;4.370;2022-12-18T07:18:44;67.60;;;24.70;;
45388;SDS011;31127;52.078;4.370;2022-12-18T07:23:39;64.88;;;22.63;;
45388;SDS011;31127;52.078;4.370;2022-12-18T07:28:35;65.35;;;24.83;;
45388;SDS011;31127;52.078;4.370;2022-12-18T07:33:31;66.40;;;24.30;;
45388;SDS011;31127;52.078;4.370;2022-12-18T07:38:27;59.83;;;23.38;;
45388;SDS011;31127;52.078;4.370;2022-12-18T07:43:22;57.83;;;22.92;;
45388;SDS011;31127;52.078;4.370;2022-12-18T07:48:17;54.27;;;22.13;;
45388;SDS011;31127;52.078;4.370;2022-12-18T07:53:13;53.80;;;21.77;;
45388;SDS011;31127;52.078;4.370;2022-12-18T07:58:09;53.75;;;22.50;;
45388;SDS011;31127;52.078;4.370;2022-12-18T08:03:04;47.85;;;19.77;;
45388;SDS011;31127;52.078;4.370;2022-12-18T08:08:20;47.33;;;20.35;;
45388;SDS011;31127;52.078;4.370;2022-12-18T08:13:15;51.40;;;20.55;;
45388;SDS011;31127;52.078;4.370;2022-12-18T08:18:10;47.60;;;20.50;;
45388;SDS011;31127;52.078;4.370;2022-12-18T08:23:06;50.78;;;21.15;;
45388;SDS011;31127;52.078;4.370;2022-12-18T08:34:22;44.72;;;19.63;;
45388;SDS011;31127;52.078;4.370;2022-12-18T08:39:18;44.07;;;19.47;;
45388;SDS011;31127;52.078;4.370;2022-12-18T08:44:13;45.08;;;19.30;;
45388;SDS011;31127;52.078;4.370;2022-12-18T08:49:27;41.05;;;18.88;;
45388;SDS011;31127;52.078;4.370;2022-12-18T08:54:23;41.00;;;18.98;;
45388;SDS011;31127;52.078;4.370;2022-12-18T08:59:18;45.65;;;18.05;;
45388;SDS011;31127;52.078;4.370;2022-12-18T09:04:14;35.28;;;17.80;;
45388;SDS011;31127;52.078;4.370;2022-12-18T09:09:09;39.70;;;18.60;;
45388;SDS011;31127;52.078;4.370;2022-12-18T09:14:05;40.92;;;17.42;;
45388;SDS011;31127;52.078;4.370;2022-12-18T09:19:01;43.28;;;17.48;;
45388;SDS011;31127;52.078;4.370;2022-12-18T09:23:57;35.63;;;16.23;;
45388;SDS011;31127;52.078;4.370;2022-12-18T09:28:52;37.20;;;16.73;;
45388;SDS011;31127;52.078;4.370;2022-12-18T09:33:48;34.42;;;15.65;;
45388;SDS011;31127;52.078;4.370;2022-12-18T09:38:44;34.80;;;17.05;;
45388;SDS011;31127;52.078;4.370;2022-12-18T09:44:33;35.50;;;16.27;;
45388;SDS011;31127;52.078;4.370;2022-12-18T09:49:21;30.95;;;15.02;;
45388;SDS011;31127;52.078;4.370;2022-12-18T09:54:20;31.08;;;16.77;;
45388;SDS011;31127;52.078;4.370;2022-12-18T10:04:12;36.97;;;17.23;;
45388;SDS011;31127;52.078;4.370;2022-12-18T10:09:10;35.00;;;17.38;;
45388;SDS011;31127;52.078;4.370;2022-12-18T10:24:24;32.25;;;15.88;;
45388;SDS011;31127;52.078;4.370;2022-12-18T10:29:22;33.10;;;16.17;;
45388;SDS011;31127;52.078;4.370;2022-12-18T10:34:17;32.25;;;14.88;;
45388;SDS011;31127;52.078;4.370;2022-12-18T10:39:16;46.92;;;17.70;;
45388;SDS011;31127;52.078;4.370;2022-12-18T10:44:14;33.70;;;16.00;;
45388;SDS011;31127;52.078;4.370;2022-12-18T10:49:24;32.35;;;15.95;;
45388;SDS011;31127;52.078;4.370;2022-12-18T10:54:23;34.28;;;14.82;;
45388;SDS011;31127;52.078;4.370;2022-12-18T10:59:19;27.25;;;14.45;;
45388;SDS011;31127;52.078;4.370;2022-12-18T11:04:18;32.03;;;16.98;;
45388;SDS011;31127;52.078;4.370;2022-12-18T11:09:21;31.67;;;14.60;;
45388;SDS011;31127;52.078;4.370;2022-12-18T11:19:26;34.03;;;16.13;;
45388;SDS011;31127;52.078;4.370;2022-12-18T11:24:33;33.15;;;15.43;;
45388;SDS011;31127;52.078;4.370;2022-12-18T11:29:31;30.02;;;14.73;;
45388;SDS011;31127;52.078;4.370;2022-12-18T11:34:28;31.45;;;16.55;;
45388;SDS011;31127;52.078;4.370;2022-12-18T11:39:31;34.67;;;16.50;;
45388;SDS011;31127;52.078;4.370;2022-12-18T11:44:32;30.13;;;15.02;;
45388;SDS011;31127;52.078;4.370;2022-12-18T11:49:34;28.60;;;15.18;;
45388;SDS011;31127;52.078;4.370;2022-12-18T11:54:29;32.45;;;15.52;;
45388;SDS011;31127;52.078;4.370;2022-12-18T12:26:07;32.10;;;14.93;;
45388;SDS011;31127;52.078;4.370;2022-12-18T12:41:18;31.08;;;15.82;;
45388;SDS011;31127;52.078;4.370;2022-12-18T12:46:34;34.15;;;15.57;;
45388;SDS011;31127;52.078;4.370;2022-12-18T12:51:37;31.10;;;16.02;;
45388;SDS011;31127;52.078;4.370;2022-12-18T13:15:12;29.17;;;15.35;;
45388;SDS011;31127;52.078;4.370;2022-12-18T13:20:10;34.88;;;15.52;;
45388;SDS011;31127;52.078;4.370;2022-12-18T13:50:34;35.50;;;16.95;;
45388;SDS011;31127;52.078;4.370;2022-12-18T13:55:30;32.85;;;16.48;;
45388;SDS011;31127;52.078;4.370;2022-12-18T14:00:26;34.37;;;17.80;;
45388;SDS011;31127;52.078;4.370;2022-12-18T14:20:22;33.72;;;18.77;;
45388;SDS011;31127;52.078;4.370;2022-12-18T14:25:22;38.40;;;17.92;;
45388;SDS011;31127;52.078;4.370;2022-12-18T14:30:38;31.85;;;15.60;;
45388;SDS011;31127;52.078;4.370;2022-12-18T14:35:35;32.40;;;16.67;;
45388;SDS011;31127;52.078;4.370;2022-12-18T14:40:30;30.70;;;17.80;;
45388;SDS011;31127;52.078;4.370;2022-12-18T14:45:33;34.53;;;17.23;;
45388;SDS011;31127;52.078;4.370;2022-12-18T14:50:28;29.53;;;15.73;;
45388;SDS011;31127;52.078;4.370;2022-12-18T14:55:23;37.67;;;18.70;;
45388;SDS011;31127;52.078;4.370;2022-12-18T15:00:20;36.08;;;17.98;;
45388;SDS011;31127;52.078;4.370;2022-12-18T15:05:17;37.03;;;17.38;;
45388;SDS011;31127;52.078;4.370;2022-12-18T15:20:30;38.60;;;18.15;;
45388;SDS011;31127;52.078;4.370;2022-12-18T15:25:34;36.90;;;18.90;;
45388;SDS011;31127;52.078;4.370;2022-12-18T15:30:31;40.63;;;18.55;;
45388;SDS011;31127;52.078;4.370;2022-12-18T15:35:26;33.53;;;16.30;;
45388;SDS011;31127;52.078;4.370;2022-12-18T15:40:23;36.90;;;17.33;;
45388;SDS011;31127;52.078;4.370;2022-12-18T15:45:18;38.67;;;19.05;;
45388;SDS011;31127;52.078;4.370;2022-12-18T15:50:14;31.17;;;16.20;;
45388;SDS011;31127;52.078;4.370;2022-12-18T15:55:11;31.53;;;16.50;;
45388;SDS011;31127;52.078;4.370;2022-12-18T16:00:25;30.25;;;16.00;;
45388;SDS011;31127;52.078;4.370;2022-12-18T16:05:21;31.70;;;16.80;;
45388;SDS011;31127;52.078;4.370;2022-12-18T16:15:19;33.30;;;17.48;;
45388;SDS011;31127;52.078;4.370;2022-12-18T16:20:34;30.17;;;15.15;;
45388;SDS011;31127;52.078;4.370;2022-12-18T16:25:29;37.07;;;16.60;;
45388;SDS011;31127;52.078;4.370;2022-12-18T16:35:27;34.58;;;16.85;;
45388;SDS011;31127;52.078;4.370;2022-12-18T16:40:22;32.53;;;16.50;;
45388;SDS011;31127;52.078;4.370;2022-12-18T16:45:17;29.97;;;14.50;;
45388;SDS011;31127;52.078;4.370;2022-12-18T16:50:13;33.75;;;16.63;;
45388;SDS011;31127;52.078;4.370;2022-12-18T16:55:08;32.92;;;16.60;;
45388;SDS011;31127;52.078;4.370;2022-12-18T17:00:04;33.37;;;15.87;;
45388;SDS011;31127;52.078;4.370;2022-12-18T17:05:00;31.17;;;16.25;;
45388;SDS011;31127;52.078;4.370;2022-12-18T17:09:55;37.23;;;17.17;;
45388;SDS011;31127;52.078;4.370;2022-12-18T17:14:51;36.80;;;16.27;;
45388;SDS011;31127;52.078;4.370;2022-12-18T17:19:46;33.08;;;16.40;;
45388;SDS011;31127;52.078;4.370;2022-12-18T17:24:41;35.10;;;16.15;;
45388;SDS011;31127;52.078;4.370;2022-12-18T17:29:37;40.00;;;18.67;;
45388;SDS011;31127;52.078;4.370;2022-12-18T17:34:32;36.53;;;17.98;;
45388;SDS011;31127;52.078;4.370;2022-12-18T17:39:28;25.33;;;12.75;;
45388;SDS011;31127;52.078;4.370;2022-12-18T17:44:24;37.28;;;18.67;;
45388;SDS011;31127;52.078;4.370;2022-12-18T17:49:20;30.42;;;15.00;;
45388;SDS011;31127;52.078;4.370;2022-12-18T17:54:15;45.95;;;18.48;;
45388;SDS011;31127;52.078;4.370;2022-12-18T17:59:11;37.55;;;18.65;;
45388;SDS011;31127;52.078;4.370;2022-12-18T18:04:06;38.92;;;18.88;;
45388;SDS011;31127;52.078;4.370;2022-12-18T18:09:02;32.13;;;13.93;;
45388;SDS011;31127;52.078;4.370;2022-12-18T18:18:59;46.60;;;21.17;;
45388;SDS011;31127;52.078;4.370;2022-12-18T18:23:58;39.38;;;18.98;;
45388;SDS011;31127;52.078;4.370;2022-12-18T18:28:53;37.10;;;17.90;;
45388;SDS011;31127;52.078;4.370;2022-12-18T18:33:49;34.53;;;17.00;;
45388;SDS011;31127;52.078;4.370;2022-12-18T18:38:44;31.77;;;15.20;;
45388;SDS011;31127;52.078;4.370;2022-12-18T18:43:39;37.03;;;19.00;;
45388;SDS011;31127;52.078;4.370;2022-12-18T18:48:35;53.17;;;23.30;;
45388;SDS011;31127;52.078;4.370;2022-12-18T18:53:34;48.00;;;21.48;;
45388;SDS011;31127;52.078;4.370;2022-12-18T18:58:30;48.08;;;22.67;;
45388;SDS011;31127;52.078;4.370;2022-12-18T19:08:28;39.47;;;15.85;;
45388;SDS011;31127;52.078;4.370;2022-12-18T19:13:25;47.17;;;23.40;;
45388;SDS011;31127;52.078;4.370;2022-12-18T19:18:21;49.42;;;24.35;;
45388;SDS011;31127;52.078;4.370;2022-12-18T19:23:17;47.65;;;24.00;;
45388;SDS011;31127;52.078;4.370;2022-12-18T19:28:12;250.02;;;32.55;;
45388;SDS011;31127;52.078;4.370;2022-12-18T19:33:08;50.42;;;25.48;;
45388;SDS011;31127;52.078;4.370;2022-12-18T19:38:03;41.78;;;18.30;;
45388;SDS011;31127;52.078;4.370;2022-12-18T19:42:59;47.22;;;19.92;;
45388;SDS011;31127;52.078;4.370;2022-12-18T19:47:56;51.45;;;23.15;;
45388;SDS011;31127;52.078;4.370;2022-12-18T19:52:51;51.17;;;23.60;;
45388;SDS011;31127;52.078;4.370;2022-12-18T19:57:47;51.00;;;23.30;;
45388;SDS011;31127;52.078;4.370;2022-12-18T20:02:42;43.97;;;21.88;;
45388;SDS011;31127;52.078;4.370;2022-12-18T20:07:37;62.78;;;25.83;;
45388;SDS011;31127;52.078;4.370;2022-12-18T20:12:33;60.40;;;26.55;;
45388;SDS011;31127;52.078;4.370;2022-12-18T20:17:28;53.97;;;25.58;;
45388;SDS011;31127;52.078;4.370;2022-12-18T20:22:24;54.50;;;23.60;;
45388;SDS011;31127;52.078;4.370;2022-12-18T20:27:19;50.67;;;25.45;;
45388;SDS011;31127;52.078;4.370;2022-12-18T20:32:14;61.13;;;25.97;;
45388;SDS011;31127;52.078;4.370;2022-12-18T20:37:10;63.63;;;28.85;;
45388;SDS011;31127;52.078;4.370;2022-12-18T20:42:05;60.38;;;25.90;;
45388;SDS011;31127;52.078;4.370;2022-12-18T20:47:01;54.63;;;24.20;;
45388;SDS011;31127;52.078;4.370;2022-12-18T20:51:57;62.92;;;28.35;;
45388;SDS011;31127;52.078;4.370;2022-12-18T20:56:53;57.20;;;27.05;;
45388;SDS011;31127;52.078;4.370;2022-12-18T21:01:49;68.65;;;29.13;;
45388;SDS011;31127;52.078;4.370;2022-12-18T21:06:46;58.78;;;26.48;;
45388;SDS011;31127;52.078;4.370;2022-12-18T21:11:42;63.17;;;28.40;;
45388;SDS011;31127;52.078;4.370;2022-12-18T21:16:56;66.68;;;26.77;;
45388;SDS011;31127;52.078;4.370;2022-12-18T21:21:54;69.95;;;28.65;;
45388;SDS011;31127;52.078;4.370;2022-12-18T21:26:50;66.95;;;30.58;;
45388;SDS011;31127;52.078;4.370;2022-12-18T21:31:46;115.10;;;34.88;;
45388;SDS011;31127;52.078;4.370;2022-12-18T21:36:42;72.45;;;28.23;;
45388;SDS011;31127;52.078;4.370;2022-12-18T21:41:37;68.63;;;28.90;;
45388;SDS011;31127;52.078;4.370;2022-12-18T21:46:51;59.67;;;25.02;;
45388;SDS011;31127;52.078;4.370;2022-12-18T21:51:50;88.40;;;31.43;;
45388;SDS011;31127;52.078;4.370;2022-12-18T21:57:01;69.18;;;30.05;;
45388;SDS011;31127;52.078;4.370;2022-12-18T22:02:01;75.72;;;31.77;;
45388;SDS011;31127;52.078;4.370;2022-12-18T22:06:57;73.18;;;29.40;;
45388;SDS011;31127;52.078;4.370;2022-12-18T22:11:52;59.90;;;24.13;;
45388;SDS011;31127;52.078;4.370;2022-12-18T22:16:47;73.30;;;28.77;;
45388;SDS011;31127;52.078;4.370;2022-12-18T22:21:47;61.92;;;25.60;;
45388;SDS011;31127;52.078;4.370;2022-12-18T22:26:43;47.15;;;18.63;;
45388;SDS011;31127;52.078;4.370;2022-12-18T22:36:41;65.75;;;26.40;;
45388;SDS011;31127;52.078;4.370;2022-12-18T22:41:37;59.10;;;24.90;;
45388;SDS011;31127;52.078;4.370;2022-12-18T22:51:35;69.70;;;28.60;;
45388;SDS011;31127;52.078;4.370;2022-12-18T22:56:30;70.50;;;27.58;;
45388;SDS011;31127;52.078;4.370;2022-12-18T23:01:26;70.15;;;26.70;;
45388;SDS011;31127;52.078;4.370;2022-12-18T23:06:22;75.53;;;29.75;;
45388;SDS011;31127;52.078;4.370;2022-12-18T23:11:18;57.38;;;24.23;;
45388;SDS011;31127;52.078;4.370;2022-12-18T23:16:14;73.22;;;29.25;;
45388;SDS011;31127;52.078;4.370;2022-12-18T23:21:11;78.85;;;27.20;;
45388;SDS011;31127;52.078;4.370;2022-12-18T23:26:26;61.88;;;22.27;;
45388;SDS011;31127;52.078;4.370;2022-12-18T23:31:26;61.93;;;26.27;;
45388;SDS011;31127;52.078;4.370;2022-12-18T23:36:22;66.05;;;26.02;;
45388;SDS011;31127;52.078;4.370;2022-12-18T23:41:18;70.05;;;27.85;;
